sensor_id;sensor_type;location;lat;lon;timestamp;pressure;altitude;pressure_sealevel;temperature;humidity
53300;BME280;39187;48.476;8.310;2023-04-25T00:01:13;90627.34;;;5.00;100.00
53300;BME280;39187;48.476;8.310;2023-04-25T00:03:39;90616.03;;;5.03;100.00
53300;BME280;39187;48.476;8.310;2023-04-25T00:06:05;90625.75;;;5.09;100.00
53300;BME280;39187;48.476;8.310;2023-04-25T00:08:32;90619.03;;;5.05;100.00
53300;BME280;39187;48.476;8.310;2023-04-25T00:10:58;90614.13;;;5.03;100.00
53300;BME280;39187;48.476;8.310;2023-04-25T00:13:24;90614.91;;;5.00;100.00
53300;BME280;39187;48.476;8.310;2023-04-25T00:15:51;90616.03;;;5.03;100.00
53300;BME280;39187;48.476;8.310;2023-04-25T00:18:19;90609.88;;;5.13;100.00
53300;BME280;39187;48.476;8.310;2023-04-25T00:20:44;90611.34;;;5.17;100.00
53300;BME280;39187;48.476;8.310;2023-04-25T00:23:13;90614.53;;;5.02;100.00
53300;BME280;39187;48.476;8.310;2023-04-25T00:25:48;90614.44;;;5.09;100.00
53300;BME280;39187;48.476;8.310;2023-04-25T00:28:14;90615.59;;;5.08;100.00
53300;BME280;39187;48.476;8.310;2023-04-25T00:30:42;90616.09;;;4.55;100.00
53300;BME280;39187;48.476;8.310;2023-04-25T00:33:09;90606.75;;;4.88;100.00
53300;BME280;39187;48.476;8.310;2023-04-25T00:35:35;90611.69;;;4.86;100.00
53300;BME280;39187;48.476;8.310;2023-04-25T00:38:00;90607.88;;;4.87;100.00
53300;BME280;39187;48.476;8.310;2023-04-25T00:40:27;90608.00;;;4.76;100.00
53300;BME280;39187;48.476;8.310;2023-04-25T00:42:53;90608.44;;;4.67;100.00
53300;BME280;39187;48.476;8.310;2023-04-25T00:45:19;90608.31;;;4.85;100.00
53300;BME280;39187;48.476;8.310;2023-04-25T00:47:45;90604.22;;;4.77;100.00
53300;BME280;39187;48.476;8.310;2023-04-25T00:50:11;90598.91;;;4.80;100.00
53300;BME280;39187;48.476;8.310;2023-04-25T00:52:44;90596.28;;;4.80;100.00
53300;BME280;39187;48.476;8.310;2023-04-25T00:55:12;90594.69;;;4.87;100.00
53300;BME280;39187;48.476;8.310;2023-04-25T00:57:38;90597.69;;;4.89;100.00
53300;BME280;39187;48.476;8.310;2023-04-25T01:00:08;90599.72;;;4.77;100.00
53300;BME280;39187;48.476;8.310;2023-04-25T01:02:35;90599.22;;;4.90;100.00
53300;BME280;39187;48.476;8.310;2023-04-25T01:05:02;90601.53;;;4.84;100.00
53300;BME280;39187;48.476;8.310;2023-04-25T01:07:27;90590.22;;;4.83;100.00
53300;BME280;39187;48.476;8.310;2023-04-25T01:09:53;90591.44;;;4.75;100.00
53300;BME280;39187;48.476;8.310;2023-04-25T01:12:19;90592.06;;;4.87;100.00
53300;BME280;39187;48.476;8.310;2023-04-25T01:14:45;90581.88;;;4.89;100.00
53300;BME280;39187;48.476;8.310;2023-04-25T01:17:11;90590.94;;;4.88;100.00
53300;BME280;39187;48.476;8.310;2023-04-25T01:19:37;90587.66;;;4.80;100.00
53300;BME280;39187;48.476;8.310;2023-04-25T01:22:03;90590.97;;;4.84;100.00
53300;BME280;39187;48.476;8.310;2023-04-25T01:24:29;90587.59;;;4.83;100.00
53300;BME280;39187;48.476;8.310;2023-04-25T01:26:56;90576.34;;;4.79;100.00
53300;BME280;39187;48.476;8.310;2023-04-25T01:29:23;90572.59;;;4.77;100.00
53300;BME280;39187;48.476;8.310;2023-04-25T01:31:51;90564.81;;;4.63;100.00
53300;BME280;39187;48.476;8.310;2023-04-25T01:34:16;90577.47;;;4.37;100.00
53300;BME280;39187;48.476;8.310;2023-04-25T01:36:42;90572.03;;;4.55;100.00
53300;BME280;39187;48.476;8.310;2023-04-25T01:39:07;90576.56;;;4.55;100.00
53300;BME280;39187;48.476;8.310;2023-04-25T01:41:33;90577.19;;;4.28;100.00
53300;BME280;39187;48.476;8.310;2023-04-25T01:44:02;90576.31;;;4.42;100.00
53300;BME280;39187;48.476;8.310;2023-04-25T01:46:28;90577.03;;;4.46;100.00
53300;BME280;39187;48.476;8.310;2023-04-25T01:48:54;90574.34;;;4.53;100.00
53300;BME280;39187;48.476;8.310;2023-04-25T01:51:20;90571.84;;;4.35;100.00
53300;BME280;39187;48.476;8.310;2023-04-25T01:53:45;90567.16;;;4.13;100.00
53300;BME280;39187;48.476;8.310;2023-04-25T01:56:11;90568.84;;;4.37;100.00
53300;BME280;39187;48.476;8.310;2023-04-25T01:58:36;90572.47;;;4.50;100.00
53300;BME280;39187;48.476;8.310;2023-04-25T02:01:02;90571.34;;;4.51;100.00
53300;BME280;39187;48.476;8.310;2023-04-25T02:03:29;90563.81;;;4.53;100.00
53300;BME280;39187;48.476;8.310;2023-04-25T02:05:54;90571.28;;;4.55;100.00
53300;BME280;39187;48.476;8.310;2023-04-25T02:08:20;90580.69;;;4.59;100.00
53300;BME280;39187;48.476;8.310;2023-04-25T02:10:46;90583.72;;;4.58;100.00
53300;BME280;39187;48.476;8.310;2023-04-25T02:13:11;90577.38;;;4.52;100.00
53300;BME280;39187;48.476;8.310;2023-04-25T02:15:37;90579.56;;;4.57;100.00
53300;BME280;39187;48.476;8.310;2023-04-25T02:18:02;90574.41;;;4.46;100.00
53300;BME280;39187;48.476;8.310;2023-04-25T02:20:29;90575.13;;;4.50;100.00
53300;BME280;39187;48.476;8.310;2023-04-25T02:22:55;90569.47;;;4.52;100.00
53300;BME280;39187;48.476;8.310;2023-04-25T02:25:21;90566.50;;;4.46;100.00
53300;BME280;39187;48.476;8.310;2023-04-25T02:27:48;90569.13;;;4.46;100.00
53300;BME280;39187;48.476;8.310;2023-04-25T02:30:14;90558.41;;;4.23;100.00
53300;BME280;39187;48.476;8.310;2023-04-25T02:32:40;90556.84;;;4.32;100.00
53300;BME280;39187;48.476;8.310;2023-04-25T02:35:06;90558.22;;;4.44;100.00
53300;BME280;39187;48.476;8.310;2023-04-25T02:37:33;90557.88;;;4.42;100.00
53300;BME280;39187;48.476;8.310;2023-04-25T02:39:59;90553.94;;;4.16;100.00
53300;BME280;39187;48.476;8.310;2023-04-25T02:42:24;90552.75;;;4.28;100.00
53300;BME280;39187;48.476;8.310;2023-04-25T02:44:50;90553.13;;;4.26;100.00
53300;BME280;39187;48.476;8.310;2023-04-25T02:47:15;90549.31;;;4.34;100.00
53300;BME280;39187;48.476;8.310;2023-04-25T02:49:41;90548.88;;;4.36;100.00
53300;BME280;39187;48.476;8.310;2023-04-25T02:52:06;90541.34;;;4.38;100.00
53300;BME280;39187;48.476;8.310;2023-04-25T02:54:32;90550.94;;;4.18;100.00
53300;BME280;39187;48.476;8.310;2023-04-25T02:56:57;90541.81;;;4.29;100.00
53300;BME280;39187;48.476;8.310;2023-04-25T02:59:23;90534.31;;;4.24;100.00
53300;BME280;39187;48.476;8.310;2023-04-25T03:01:49;90542.66;;;4.19;100.00
53300;BME280;39187;48.476;8.310;2023-04-25T03:04:14;90536.50;;;4.33;100.00
53300;BME280;39187;48.476;8.310;2023-04-25T03:06:40;90538.44;;;4.29;100.00
53300;BME280;39187;48.476;8.310;2023-04-25T03:09:06;90537.44;;;4.12;100.00
53300;BME280;39187;48.476;8.310;2023-04-25T03:11:31;90535.88;;;4.22;100.00
53300;BME280;39187;48.476;8.310;2023-04-25T03:13:57;90538.06;;;4.27;100.00
53300;BME280;39187;48.476;8.310;2023-04-25T03:16:22;90535.06;;;4.25;100.00
53300;BME280;39187;48.476;8.310;2023-04-25T03:18:48;90530.13;;;4.30;100.00
53300;BME280;39187;48.476;8.310;2023-04-25T03:21:15;90532.44;;;4.25;100.00
53300;BME280;39187;48.476;8.310;2023-04-25T03:23:41;90522.66;;;4.29;100.00
53300;BME280;39187;48.476;8.310;2023-04-25T03:26:06;90522.03;;;4.11;100.00
53300;BME280;39187;48.476;8.310;2023-04-25T03:28:31;90526.59;;;4.07;100.00
53300;BME280;39187;48.476;8.310;2023-04-25T03:30:57;90519.25;;;4.28;100.00
53300;BME280;39187;48.476;8.310;2023-04-25T03:33:22;90516.94;;;4.34;100.00
53300;BME280;39187;48.476;8.310;2023-04-25T03:35:48;90513.19;;;4.35;100.00
53300;BME280;39187;48.476;8.310;2023-04-25T03:38:15;90509.59;;;4.15;100.00
53300;BME280;39187;48.476;8.310;2023-04-25T03:40:40;90506.44;;;4.30;100.00
53300;BME280;39187;48.476;8.310;2023-04-25T03:43:06;90511.63;;;4.37;100.00
53300;BME280;39187;48.476;8.310;2023-04-25T03:45:32;90512.00;;;4.39;100.00
53300;BME280;39187;48.476;8.310;2023-04-25T03:47:57;90513.91;;;4.35;100.00
53300;BME280;39187;48.476;8.310;2023-04-25T03:50:23;90530.63;;;3.70;100.00
53300;BME280;39187;48.476;8.310;2023-04-25T03:52:48;90537.78;;;3.70;100.00
53300;BME280;39187;48.476;8.310;2023-04-25T03:55:14;90539.25;;;3.74;100.00
53300;BME280;39187;48.476;8.310;2023-04-25T03:57:39;90543.66;;;3.33;100.00
53300;BME280;39187;48.476;8.310;2023-04-25T04:00:06;90538.09;;;3.20;100.00
53300;BME280;39187;48.476;8.310;2023-04-25T04:02:31;90535.59;;;2.85;100.00
53300;BME280;39187;48.476;8.310;2023-04-25T04:04:58;90537.69;;;3.21;100.00
53300;BME280;39187;48.476;8.310;2023-04-25T04:07:23;90536.28;;;3.03;100.00
53300;BME280;39187;48.476;8.310;2023-04-25T04:09:49;90522.81;;;2.90;100.00
53300;BME280;39187;48.476;8.310;2023-04-25T04:12:14;90522.94;;;2.62;100.00
53300;BME280;39187;48.476;8.310;2023-04-25T04:14:40;90514.31;;;2.58;100.00
53300;BME280;39187;48.476;8.310;2023-04-25T04:17:05;90522.56;;;2.56;100.00
53300;BME280;39187;48.476;8.310;2023-04-25T04:19:31;90509.38;;;2.70;100.00
53300;BME280;39187;48.476;8.310;2023-04-25T04:21:56;90515.28;;;2.96;100.00
53300;BME280;39187;48.476;8.310;2023-04-25T04:24:22;90514.47;;;3.09;100.00
53300;BME280;39187;48.476;8.310;2023-04-25T04:26:47;90516.28;;;3.23;100.00
53300;BME280;39187;48.476;8.310;2023-04-25T04:29:13;90510.22;;;3.30;100.00
53300;BME280;39187;48.476;8.310;2023-04-25T04:31:47;90505.69;;;3.34;100.00
53300;BME280;39187;48.476;8.310;2023-04-25T04:34:13;90496.66;;;3.38;100.00
53300;BME280;39187;48.476;8.310;2023-04-25T04:36:38;90502.38;;;3.26;100.00
53300;BME280;39187;48.476;8.310;2023-04-25T04:39:05;90503.44;;;3.36;100.00
53300;BME280;39187;48.476;8.310;2023-04-25T04:41:31;90500.75;;;3.43;100.00
53300;BME280;39187;48.476;8.310;2023-04-25T04:43:57;90498.13;;;3.43;100.00
53300;BME280;39187;48.476;8.310;2023-04-25T04:46:22;90500.34;;;3.51;100.00
53300;BME280;39187;48.476;8.310;2023-04-25T04:48:49;90499.59;;;3.47;100.00
53300;BME280;39187;48.476;8.310;2023-04-25T04:51:15;90492.34;;;3.62;100.00
53300;BME280;39187;48.476;8.310;2023-04-25T04:53:40;90504.38;;;3.59;100.00
53300;BME280;39187;48.476;8.310;2023-04-25T04:56:06;90508.31;;;3.85;100.00
53300;BME280;39187;48.476;8.310;2023-04-25T04:58:31;90505.19;;;4.01;100.00
53300;BME280;39187;48.476;8.310;2023-04-25T05:00:57;90514.22;;;4.00;100.00
53300;BME280;39187;48.476;8.310;2023-04-25T05:03:22;90518.72;;;4.03;100.00
53300;BME280;39187;48.476;8.310;2023-04-25T05:05:48;90516.69;;;4.18;100.00
53300;BME280;39187;48.476;8.310;2023-04-25T05:08:13;90523.78;;;4.24;100.00
53300;BME280;39187;48.476;8.310;2023-04-25T05:10:39;90513.94;;;4.32;100.00
53300;BME280;39187;48.476;8.310;2023-04-25T05:13:04;90506.84;;;4.29;100.00
53300;BME280;39187;48.476;8.310;2023-04-25T05:15:30;90508.38;;;4.23;100.00
53300;BME280;39187;48.476;8.310;2023-04-25T05:17:55;90512.38;;;4.38;100.00
53300;BME280;39187;48.476;8.310;2023-04-25T05:20:21;90506.66;;;4.47;100.00
53300;BME280;39187;48.476;8.310;2023-04-25T05:22:46;90517.16;;;4.50;100.00
53300;BME280;39187;48.476;8.310;2023-04-25T05:25:12;90505.78;;;4.57;100.00
53300;BME280;39187;48.476;8.310;2023-04-25T05:27:37;90506.09;;;4.62;100.00
53300;BME280;39187;48.476;8.310;2023-04-25T05:30:04;90513.63;;;4.64;100.00
53300;BME280;39187;48.476;8.310;2023-04-25T05:32:30;90509.47;;;4.66;100.00
53300;BME280;39187;48.476;8.310;2023-04-25T05:34:56;90509.53;;;4.59;100.00
53300;BME280;39187;48.476;8.310;2023-04-25T05:37:21;90509.91;;;4.58;100.00
53300;BME280;39187;48.476;8.310;2023-04-25T05:39:47;90515.13;;;4.65;100.00
53300;BME280;39187;48.476;8.310;2023-04-25T05:42:12;90511.78;;;4.61;100.00
53300;BME280;39187;48.476;8.310;2023-04-25T05:44:38;90512.44;;;4.68;100.00
53300;BME280;39187;48.476;8.310;2023-04-25T05:47:04;90514.81;;;4.59;100.00
53300;BME280;39187;48.476;8.310;2023-04-25T05:49:30;90525.28;;;4.63;100.00
53300;BME280;39187;48.476;8.310;2023-04-25T05:51:55;90516.94;;;4.68;100.00
53300;BME280;39187;48.476;8.310;2023-04-25T05:54:21;90525.66;;;4.27;100.00
53300;BME280;39187;48.476;8.310;2023-04-25T05:56:46;90516.47;;;4.42;100.00
53300;BME280;39187;48.476;8.310;2023-04-25T05:59:12;90517.16;;;4.50;100.00
53300;BME280;39187;48.476;8.310;2023-04-25T06:01:37;90527.94;;;4.25;100.00
53300;BME280;39187;48.476;8.310;2023-04-25T06:04:03;90523.56;;;4.49;100.00
53300;BME280;39187;48.476;8.310;2023-04-25T06:06:28;90514.94;;;4.45;100.00
53300;BME280;39187;48.476;8.310;2023-04-25T06:08:54;90517.31;;;4.32;100.00
53300;BME280;39187;48.476;8.310;2023-04-25T06:11:20;90523.97;;;4.48;100.00
53300;BME280;39187;48.476;8.310;2023-04-25T06:13:46;90523.53;;;4.53;100.00
53300;BME280;39187;48.476;8.310;2023-04-25T06:16:11;90527.06;;;3.94;100.00
53300;BME280;39187;48.476;8.310;2023-04-25T06:18:37;90526.97;;;4.05;100.00
53300;BME280;39187;48.476;8.310;2023-04-25T06:21:02;90529.22;;;4.07;100.00
53300;BME280;39187;48.476;8.310;2023-04-25T06:23:28;90527.75;;;4.02;100.00
53300;BME280;39187;48.476;8.310;2023-04-25T06:25:53;90528.19;;;3.93;100.00
53300;BME280;39187;48.476;8.310;2023-04-25T06:28:19;90524.94;;;4.23;100.00
53300;BME280;39187;48.476;8.310;2023-04-25T06:30:47;90530.19;;;4.23;100.00
53300;BME280;39187;48.476;8.310;2023-04-25T06:33:12;90529.31;;;4.40;100.00
53300;BME280;39187;48.476;8.310;2023-04-25T06:35:38;90532.16;;;4.16;100.00
53300;BME280;39187;48.476;8.310;2023-04-25T06:38:03;90524.41;;;4.39;100.00
53300;BME280;39187;48.476;8.310;2023-04-25T06:40:29;90531.69;;;4.24;100.00
53300;BME280;39187;48.476;8.310;2023-04-25T06:42:54;90524.94;;;4.23;100.00
53300;BME280;39187;48.476;8.310;2023-04-25T06:45:20;90524.38;;;4.42;100.00
53300;BME280;39187;48.476;8.310;2023-04-25T06:47:45;90523.28;;;4.40;100.00
53300;BME280;39187;48.476;8.310;2023-04-25T06:50:11;90523.28;;;4.40;100.00
53300;BME280;39187;48.476;8.310;2023-04-25T06:52:37;90525.88;;;4.43;100.00
53300;BME280;39187;48.476;8.310;2023-04-25T06:55:02;90521.72;;;4.46;100.00
53300;BME280;39187;48.476;8.310;2023-04-25T06:57:29;90517.69;;;4.34;100.00
53300;BME280;39187;48.476;8.310;2023-04-25T06:59:54;90523.72;;;4.35;100.00
53300;BME280;39187;48.476;8.310;2023-04-25T07:02:20;90521.03;;;4.38;100.00
53300;BME280;39187;48.476;8.310;2023-04-25T07:04:46;90530.50;;;4.32;100.00
53300;BME280;39187;48.476;8.310;2023-04-25T07:07:12;90538.41;;;4.32;100.00
53300;BME280;39187;48.476;8.310;2023-04-25T07:09:37;90545.91;;;4.34;100.00
53300;BME280;39187;48.476;8.310;2023-04-25T07:12:03;90543.72;;;4.29;100.00
53300;BME280;39187;48.476;8.310;2023-04-25T07:14:29;90541.13;;;4.22;100.00
53300;BME280;39187;48.476;8.310;2023-04-25T07:16:55;90543.47;;;4.13;100.00
53300;BME280;39187;48.476;8.310;2023-04-25T07:19:22;90544.97;;;4.14;100.00
53300;BME280;39187;48.476;8.310;2023-04-25T07:21:49;90549.84;;;4.15;100.00
53300;BME280;39187;48.476;8.310;2023-04-25T07:24:15;90549.91;;;4.04;100.00
53300;BME280;39187;48.476;8.310;2023-04-25T07:26:40;90559.38;;;3.98;100.00
53300;BME280;39187;48.476;8.310;2023-04-25T07:29:06;90563.88;;;4.01;100.00
53300;BME280;39187;48.476;8.310;2023-04-25T07:31:31;90568.88;;;3.85;100.00
53300;BME280;39187;48.476;8.310;2023-04-25T07:33:57;90562.81;;;3.92;100.00
53300;BME280;39187;48.476;8.310;2023-04-25T07:36:22;90559.78;;;3.93;100.00
53300;BME280;39187;48.476;8.310;2023-04-25T07:38:47;90566.19;;;3.92;100.00
53300;BME280;39187;48.476;8.310;2023-04-25T07:41:13;90570.31;;;3.93;100.00
53300;BME280;39187;48.476;8.310;2023-04-25T07:43:38;90566.63;;;3.84;100.00
53300;BME280;39187;48.476;8.310;2023-04-25T07:46:04;90578.44;;;3.61;100.00
53300;BME280;39187;48.476;8.310;2023-04-25T07:48:30;90582.91;;;3.68;100.00
53300;BME280;39187;48.476;8.310;2023-04-25T07:50:55;90590.06;;;3.64;100.00
53300;BME280;39187;48.476;8.310;2023-04-25T07:53:21;90586.69;;;3.60;100.00
53300;BME280;39187;48.476;8.310;2023-04-25T07:55:47;90595.38;;;3.53;100.00
53300;BME280;39187;48.476;8.310;2023-04-25T07:58:12;90595.50;;;3.32;100.00
53300;BME280;39187;48.476;8.310;2023-04-25T08:00:39;90599.59;;;3.33;100.00
53300;BME280;39187;48.476;8.310;2023-04-25T08:03:04;90610.13;;;3.33;100.00
53300;BME280;39187;48.476;8.310;2023-04-25T08:05:30;90621.06;;;3.28;100.00
53300;BME280;39187;48.476;8.310;2023-04-25T08:07:55;90609.78;;;3.28;100.00
53300;BME280;39187;48.476;8.310;2023-04-25T08:10:22;90621.84;;;3.25;100.00
53300;BME280;39187;48.476;8.310;2023-04-25T08:12:48;90622.19;;;3.27;100.00
53300;BME280;39187;48.476;8.310;2023-04-25T08:15:14;90622.19;;;3.27;100.00
53300;BME280;39187;48.476;8.310;2023-04-25T08:17:39;90623.34;;;3.22;100.00
53300;BME280;39187;48.476;8.310;2023-04-25T08:20:05;90641.72;;;3.22;100.00
53300;BME280;39187;48.476;8.310;2023-04-25T08:22:32;90646.28;;;3.18;100.00
53300;BME280;39187;48.476;8.310;2023-04-25T08:24:57;90640.00;;;2.80;100.00
53300;BME280;39187;48.476;8.310;2023-04-25T08:27:23;90639.53;;;3.03;100.00
53300;BME280;39187;48.476;8.310;2023-04-25T08:29:49;90645.94;;;2.95;100.00
53300;BME280;39187;48.476;8.310;2023-04-25T08:32:15;90646.28;;;3.08;100.00
53300;BME280;39187;48.476;8.310;2023-04-25T08:34:41;90649.31;;;3.06;100.00
53300;BME280;39187;48.476;8.310;2023-04-25T08:37:08;90656.03;;;3.18;100.00
53300;BME280;39187;48.476;8.310;2023-04-25T08:39:35;90659.09;;;2.99;100.00
53300;BME280;39187;48.476;8.310;2023-04-25T08:42:05;90658.69;;;3.11;100.00
53300;BME280;39187;48.476;8.310;2023-04-25T08:44:35;90659.50;;;2.87;100.00
53300;BME280;39187;48.476;8.310;2023-04-25T08:47:04;90662.81;;;3.08;100.00
53300;BME280;39187;48.476;8.310;2023-04-25T08:49:34;90669.56;;;3.16;100.00
53300;BME280;39187;48.476;8.310;2023-04-25T08:52:02;90675.53;;;3.20;100.00
53300;BME280;39187;48.476;8.310;2023-04-25T08:54:31;90676.28;;;3.21;100.00
53300;BME280;39187;48.476;8.310;2023-04-25T08:57:02;90676.28;;;3.28;100.00
53300;BME280;39187;48.476;8.310;2023-04-25T08:59:28;90675.59;;;3.10;100.00
53300;BME280;39187;48.476;8.310;2023-04-25T09:01:54;90677.78;;;3.22;100.00
53300;BME280;39187;48.476;8.310;2023-04-25T09:04:20;90693.16;;;3.38;100.00
53300;BME280;39187;48.476;8.310;2023-04-25T09:06:46;90688.59;;;3.49;100.00
53300;BME280;39187;48.476;8.310;2023-04-25T09:09:12;90697.63;;;3.51;100.00
53300;BME280;39187;48.476;8.310;2023-04-25T09:11:39;90698.72;;;3.57;100.00
53300;BME280;39187;48.476;8.310;2023-04-25T09:14:17;90699.47;;;3.61;100.00
53300;BME280;39187;48.476;8.310;2023-04-25T09:19:25;90708.09;;;3.58;100.00
53300;BME280;39187;48.476;8.310;2023-04-25T09:21:56;90708.50;;;3.53;100.00
53300;BME280;39187;48.476;8.310;2023-04-25T09:24:44;90711.81;;;3.72;100.00
53300;BME280;39187;48.476;8.310;2023-04-25T09:27:19;90717.50;;;3.63;100.00
53300;BME280;39187;48.476;8.310;2023-04-25T09:29:48;90726.88;;;3.68;100.00
53300;BME280;39187;48.476;8.310;2023-04-25T09:32:24;90728.34;;;3.72;100.00
53300;BME280;39187;48.476;8.310;2023-04-25T09:34:51;90730.59;;;3.81;100.00
53300;BME280;39187;48.476;8.310;2023-04-25T09:39:52;90737.63;;;3.98;100.00
53300;BME280;39187;48.476;8.310;2023-04-25T09:42:22;90734.25;;;3.97;100.00
53300;BME280;39187;48.476;8.310;2023-04-25T09:44:51;90740.63;;;4.03;100.00
53300;BME280;39187;48.476;8.310;2023-04-25T09:47:17;90750.84;;;3.94;100.00
53300;BME280;39187;48.476;8.310;2023-04-25T09:49:44;90748.91;;;4.09;100.00
53300;BME280;39187;48.476;8.310;2023-04-25T09:52:20;90752.25;;;4.13;100.00
53300;BME280;39187;48.476;8.310;2023-04-25T09:54:47;90758.25;;;4.17;100.00
53300;BME280;39187;48.476;8.310;2023-04-25T09:57:15;90753.72;;;4.21;100.00
53300;BME280;39187;48.476;8.310;2023-04-25T09:59:53;90753.31;;;4.23;100.00
53300;BME280;39187;48.476;8.310;2023-04-25T10:02:25;90758.94;;;4.25;100.00
53300;BME280;39187;48.476;8.310;2023-04-25T10:04:52;90756.97;;;4.47;100.00
53300;BME280;39187;48.476;8.310;2023-04-25T10:07:22;90756.13;;;4.57;100.00
53300;BME280;39187;48.476;8.310;2023-04-25T10:09:55;90765.47;;;4.68;100.00
53300;BME280;39187;48.476;8.310;2023-04-25T10:12:24;90769.50;;;4.83;100.00
53300;BME280;39187;48.476;8.310;2023-04-25T10:14:52;90760.91;;;5.24;100.00
53300;BME280;39187;48.476;8.310;2023-04-25T10:17:19;90770.09;;;5.46;100.00
53300;BME280;39187;48.476;8.310;2023-04-25T10:19:46;90772.09;;;5.73;100.00
53300;BME280;39187;48.476;8.310;2023-04-25T10:22:26;90762.88;;;6.22;100.00
53300;BME280;39187;48.476;8.310;2023-04-25T10:24:55;90772.06;;;5.76;100.00
53300;BME280;39187;48.476;8.310;2023-04-25T10:27:21;90772.13;;;6.07;100.00
53300;BME280;39187;48.476;8.310;2023-04-25T10:30:00;90776.41;;;6.27;100.00
53300;BME280;39187;48.476;8.310;2023-04-25T10:32:27;90773.63;;;6.38;100.00
53300;BME280;39187;48.476;8.310;2023-04-25T10:34:53;90776.19;;;6.15;100.00
53300;BME280;39187;48.476;8.310;2023-04-25T10:37:19;90778.41;;;6.20;98.90
53300;BME280;39187;48.476;8.310;2023-04-25T10:39:45;90784.47;;;6.17;99.15
53300;BME280;39187;48.476;8.310;2023-04-25T10:42:12;90778.06;;;5.80;100.00
53300;BME280;39187;48.476;8.310;2023-04-25T10:44:38;90783.53;;;6.00;99.22
53300;BME280;39187;48.476;8.310;2023-04-25T10:47:07;90784.16;;;5.74;99.99
53300;BME280;39187;48.476;8.310;2023-04-25T10:49:36;90777.31;;;5.80;99.17
53300;BME280;39187;48.476;8.310;2023-04-25T10:57:42;90791.19;;;5.50;100.00
53300;BME280;39187;48.476;8.310;2023-04-25T11:00:19;90789.59;;;5.15;100.00
53300;BME280;39187;48.476;8.310;2023-04-25T11:02:48;90790.44;;;5.49;100.00
53300;BME280;39187;48.476;8.310;2023-04-25T11:05:35;90797.09;;;5.20;100.00
53300;BME280;39187;48.476;8.310;2023-04-25T11:08:02;90802.31;;;5.27;100.00
53300;BME280;39187;48.476;8.310;2023-04-25T11:10:32;90804.03;;;5.48;100.00
53300;BME280;39187;48.476;8.310;2023-04-25T11:13:00;90802.09;;;5.52;100.00
53300;BME280;39187;48.476;8.310;2023-04-25T11:15:27;90806.66;;;5.48;100.00
53300;BME280;39187;48.476;8.310;2023-04-25T11:17:54;90806.63;;;5.51;100.00
53300;BME280;39187;48.476;8.310;2023-04-25T11:20:21;90806.34;;;5.42;100.00
53300;BME280;39187;48.476;8.310;2023-04-25T11:22:47;90809.88;;;5.66;100.00
53300;BME280;39187;48.476;8.310;2023-04-25T11:25:14;90800.19;;;5.56;100.00
53300;BME280;39187;48.476;8.310;2023-04-25T11:27:53;90807.03;;;5.46;100.00
53300;BME280;39187;48.476;8.310;2023-04-25T11:30:20;90810.19;;;5.72;100.00
53300;BME280;39187;48.476;8.310;2023-04-25T11:32:46;90815.34;;;5.86;100.00
53300;BME280;39187;48.476;8.310;2023-04-25T11:35:12;90813.59;;;5.72;100.00
53300;BME280;39187;48.476;8.310;2023-04-25T11:37:39;90815.03;;;5.39;100.00
53300;BME280;39187;48.476;8.310;2023-04-25T11:40:06;90812.66;;;5.52;100.00
53300;BME280;39187;48.476;8.310;2023-04-25T11:42:34;90815.53;;;5.23;100.00
53300;BME280;39187;48.476;8.310;2023-04-25T11:44:59;90810.81;;;5.49;100.00
53300;BME280;39187;48.476;8.310;2023-04-25T11:47:32;90818.16;;;5.68;100.00
53300;BME280;39187;48.476;8.310;2023-04-25T11:50:02;90815.81;;;5.77;100.00
53300;BME280;39187;48.476;8.310;2023-04-25T11:52:47;90820.19;;;5.94;100.00
53300;BME280;39187;48.476;8.310;2023-04-25T11:55:15;90819.38;;;6.01;100.00
53300;BME280;39187;48.476;8.310;2023-04-25T11:57:42;90811.97;;;5.89;100.00
53300;BME280;39187;48.476;8.310;2023-04-25T12:00:19;90827.09;;;6.19;100.00
53300;BME280;39187;48.476;8.310;2023-04-25T12:02:47;90818.94;;;6.40;100.00
53300;BME280;39187;48.476;8.310;2023-04-25T12:05:15;90826.09;;;6.39;100.00
53300;BME280;39187;48.476;8.310;2023-04-25T12:07:42;90827.69;;;5.99;100.00
53300;BME280;39187;48.476;8.310;2023-04-25T12:10:12;90828.16;;;6.25;100.00
53300;BME280;39187;48.476;8.310;2023-04-25T12:12:41;90834.88;;;6.33;100.00
53300;BME280;39187;48.476;8.310;2023-04-25T12:15:25;90830.00;;;6.28;100.00
53300;BME280;39187;48.476;8.310;2023-04-25T12:17:53;90828.53;;;6.27;100.00
53300;BME280;39187;48.476;8.310;2023-04-25T12:20:21;90829.00;;;6.49;100.00
53300;BME280;39187;48.476;8.310;2023-04-25T12:22:49;90820.22;;;6.59;100.00
53300;BME280;39187;48.476;8.310;2023-04-25T12:25:38;90829.28;;;6.58;100.00
53300;BME280;39187;48.476;8.310;2023-04-25T12:28:18;90838.13;;;6.74;100.00
53300;BME280;39187;48.476;8.310;2023-04-25T12:31:05;90839.09;;;6.57;100.00
53300;BME280;39187;48.476;8.310;2023-04-25T12:33:33;90843.03;;;6.72;100.00
53300;BME280;39187;48.476;8.310;2023-04-25T12:35:59;90840.41;;;7.26;100.00
53300;BME280;39187;48.476;8.310;2023-04-25T12:38:29;90842.38;;;7.22;100.00
53300;BME280;39187;48.476;8.310;2023-04-25T12:40:55;90842.81;;;7.67;100.00
53300;BME280;39187;48.476;8.310;2023-04-25T12:43:21;90844.16;;;7.98;100.00
53300;BME280;39187;48.476;8.310;2023-04-25T12:45:54;90852.19;;;7.72;100.00
53300;BME280;39187;48.476;8.310;2023-04-25T12:48:20;90851.44;;;7.71;100.00
53300;BME280;39187;48.476;8.310;2023-04-25T12:50:46;90855.50;;;7.76;100.00
53300;BME280;39187;48.476;8.310;2023-04-25T12:53:19;90861.97;;;7.75;100.00
53300;BME280;39187;48.476;8.310;2023-04-25T12:55:46;90861.53;;;7.80;100.00
53300;BME280;39187;48.476;8.310;2023-04-25T12:58:15;90860.03;;;7.79;99.86
53300;BME280;39187;48.476;8.310;2023-04-25T13:00:41;90862.72;;;7.75;100.00
53300;BME280;39187;48.476;8.310;2023-04-25T13:03:08;90865.22;;;7.86;99.81
53300;BME280;39187;48.476;8.310;2023-04-25T13:05:35;90858.13;;;7.79;100.00
53300;BME280;39187;48.476;8.310;2023-04-25T13:08:00;90857.03;;;7.53;100.00
53300;BME280;39187;48.476;8.310;2023-04-25T13:10:26;90854.78;;;7.52;100.00